Earleton, Florida
Current Conditions -  °F | °C
As of 6:53 PM on Friday 28 Nov 2014 (Local Time) from KGNV Reporting Station
Clear Clear  
Wind Chill: 44°   Ceiling: Unl
Heat Index: 44°   Visibility: 10mi
Dew Point: 36°   Wind: 0mph
Humidity: 73%   Direction: NA
Pressure: 30.32"   Gusts: NA
Location:  29.43°N, 82.21°W
Report Text: KGNV 282353Z 00000KT 10SM CLR 07/02 A3032 RMK AO2 SLP269 T00670022 10139 20067 53009
Loading
Personal Weather Stations






























Interactive Weather Map New forecast layout! Learn more

10-Day Weather Forecast

Advertisements
Track Severe Weather on mobile